createdAt,value
2023-03-27T00:03:59.812Z,93610.00
2023-03-27T00:07:59.723Z,93610.00
2023-03-27T00:11:59.702Z,93618.00
2023-03-27T00:15:59.677Z,93630.00
2023-03-27T00:19:59.606Z,93628.00
2023-03-27T00:23:59.573Z,93628.00
2023-03-27T00:27:59.553Z,93632.00
2023-03-27T00:31:59.529Z,93628.00
2023-03-27T00:35:59.478Z,93632.00
2023-03-27T00:39:59.829Z,93632.00
2023-03-27T00:43:59.359Z,93637.00
2023-03-27T00:47:59.516Z,93637.00
2023-03-27T00:51:59.307Z,93637.00
2023-03-27T00:55:59.288Z,93635.00
2023-03-27T00:59:59.261Z,93639.00
2023-03-27T01:03:59.180Z,93637.00
2023-03-27T01:08:00.994Z,93639.00
2023-03-27T01:11:59.300Z,93641.00
2023-03-27T01:15:59.369Z,93647.00
2023-03-27T01:19:59.341Z,93651.00
2023-03-27T01:24:00.785Z,93645.00
2023-03-27T01:27:59.405Z,93637.00
2023-03-27T01:31:59.359Z,93637.00
2023-03-27T01:35:59.438Z,93645.00
2023-03-27T01:39:59.428Z,93653.00
2023-03-27T01:43:59.448Z,93651.00
2023-03-27T01:47:59.467Z,93657.00
2023-03-27T01:51:59.490Z,93659.00
2023-03-27T01:55:59.537Z,93651.00
2023-03-27T02:00:17.320Z,93657.00
2023-03-27T02:04:00.540Z,93655.00
2023-03-27T02:07:59.876Z,93657.00
2023-03-27T02:11:59.470Z,93655.00
2023-03-27T02:15:59.510Z,93653.00
2023-03-27T02:19:59.393Z,93653.00
2023-03-27T02:23:59.307Z,93651.00
2023-03-27T02:27:59.278Z,93647.00
2023-03-27T02:31:59.361Z,93641.00
2023-03-27T02:35:59.283Z,93645.00
2023-03-27T02:39:59.290Z,93643.00
2023-03-27T02:43:59.325Z,93639.00
2023-03-27T02:47:59.393Z,93641.00
2023-03-27T02:51:59.364Z,93645.00
2023-03-27T02:55:59.402Z,93649.00
2023-03-27T02:59:59.417Z,93653.00
2023-03-27T03:03:59.453Z,93651.00
2023-03-27T03:07:59.478Z,93657.00
2023-03-27T03:11:59.596Z,93657.00
2023-03-27T03:15:59.576Z,93661.00
2023-03-27T03:19:59.671Z,93661.00
2023-03-27T03:23:59.698Z,93651.00
2023-03-27T03:27:59.717Z,93655.00
2023-03-27T03:31:59.729Z,93655.00
2023-03-27T03:35:59.832Z,93661.00
2023-03-27T03:39:59.859Z,93671.00
2023-03-27T03:43:59.879Z,93675.00
2023-03-27T03:47:59.991Z,93682.00
2023-03-27T03:52:03.574Z,93686.00
2023-03-27T03:56:00.013Z,93698.00
2023-03-27T03:59:59.938Z,93700.00
2023-03-27T04:03:59.910Z,93698.00
2023-03-27T04:07:59.841Z,93706.00
2023-03-27T04:11:59.821Z,93714.00
2023-03-27T04:15:59.836Z,93712.00
2023-03-27T04:19:59.755Z,93712.00
2023-03-27T04:23:59.848Z,93712.00
2023-03-27T04:28:00.027Z,93706.00
2023-03-27T04:32:00.136Z,93704.00
2023-03-27T04:36:07.364Z,93714.00
2023-03-27T04:40:01.245Z,93733.00
2023-03-27T04:44:00.406Z,93739.00
2023-03-27T04:48:00.333Z,93749.00
2023-03-27T04:52:00.140Z,93751.00
2023-03-27T04:56:00.140Z,93761.00
2023-03-27T05:00:00.217Z,93765.00
2023-03-27T05:04:00.328Z,93769.00
2023-03-27T05:08:00.349Z,93778.00
2023-03-27T05:12:00.422Z,93784.00
2023-03-27T05:16:00.644Z,93790.00
2023-03-27T05:20:00.696Z,93804.00
2023-03-27T05:24:00.772Z,93782.00
2023-03-27T05:28:01.036Z,93804.00
2023-03-27T05:32:01.590Z,93810.00
2023-03-27T05:36:01.186Z,93822.00
2023-03-27T05:40:01.384Z,93831.00
2023-03-27T05:44:01.454Z,93839.00
2023-03-27T05:48:01.567Z,93855.00
2023-03-27T05:52:01.680Z,93863.00
2023-03-27T05:56:02.373Z,93865.00
2023-03-27T06:00:01.937Z,93890.00
2023-03-27T06:04:01.913Z,93892.00
2023-03-27T06:08:01.868Z,93892.00
2023-03-27T06:12:01.936Z,93908.00
2023-03-27T06:16:01.932Z,93914.00
2023-03-27T06:20:01.915Z,93925.00
2023-03-27T06:24:01.888Z,93945.00
2023-03-27T06:28:01.956Z,93967.00
2023-03-27T06:32:01.914Z,93976.00
2023-03-27T06:36:02.066Z,93986.00
2023-03-27T06:40:02.293Z,93994.00
2023-03-27T06:44:02.084Z,94015.00
2023-03-27T06:48:16.930Z,94008.00
2023-03-27T06:52:03.084Z,94035.00
2023-03-27T06:56:02.083Z,94039.00
2023-03-27T07:00:02.751Z,94047.00
2023-03-27T07:04:02.073Z,94090.00
2023-03-27T07:08:11.391Z,94084.00
2023-03-27T07:12:02.923Z,94102.00
2023-03-27T07:16:02.007Z,94111.00
2023-03-27T07:20:02.100Z,94133.00
2023-03-27T07:24:02.303Z,94151.00
2023-03-27T07:28:03.702Z,94149.00
2023-03-27T07:32:06.225Z,94158.00
2023-03-27T07:36:03.235Z,94178.00
2023-03-27T07:40:02.181Z,94198.00
2023-03-27T07:44:02.117Z,94211.00
2023-03-27T07:48:02.693Z,94223.00
2023-03-27T07:52:02.276Z,94243.00
2023-03-27T07:56:02.333Z,94256.00
2023-03-27T08:00:02.323Z,94253.00
2023-03-27T08:04:02.627Z,94282.00
2023-03-27T08:08:02.273Z,94280.00
2023-03-27T08:12:02.293Z,94298.00
2023-03-27T08:16:02.341Z,94307.00
2023-03-27T08:20:02.398Z,94313.00
2023-03-27T08:24:02.494Z,94319.00
2023-03-27T08:28:02.559Z,94327.00
2023-03-27T08:32:02.679Z,94335.00
2023-03-27T08:36:03.025Z,94337.00
2023-03-27T08:40:03.058Z,94356.00
2023-03-27T08:44:10.009Z,94350.00
2023-03-27T08:48:03.163Z,94354.00
2023-03-27T08:52:06.290Z,94364.00
2023-03-27T08:56:02.702Z,94368.00
2023-03-27T09:00:02.671Z,94372.00
2023-03-27T09:04:02.802Z,94392.00
2023-03-27T09:08:02.593Z,94395.00
2023-03-27T09:12:02.609Z,94401.00
2023-03-27T09:16:02.799Z,94405.00
2023-03-27T09:20:02.971Z,94411.00
2023-03-27T09:24:03.105Z,94423.00
2023-03-27T09:28:03.263Z,94439.00
2023-03-27T09:32:03.355Z,94441.00
2023-03-27T09:36:03.569Z,94444.00
2023-03-27T09:40:03.590Z,94450.00
2023-03-27T09:44:03.595Z,94444.00
2023-03-27T09:48:03.520Z,94448.00
2023-03-27T09:52:03.485Z,94437.00
2023-03-27T09:56:03.582Z,94446.00
2023-03-27T10:00:03.475Z,94446.00
2023-03-27T10:04:03.542Z,94448.00
2023-03-27T10:08:03.392Z,94454.00
2023-03-27T10:12:03.312Z,94460.00
2023-03-27T10:16:03.341Z,94470.00
2023-03-27T10:20:03.616Z,94470.00
2023-03-27T10:24:03.240Z,94478.00
2023-03-27T10:28:03.223Z,94491.00
2023-03-27T10:32:03.590Z,94486.00
2023-03-27T10:36:03.140Z,94491.00
2023-03-27T10:40:03.135Z,94484.00
2023-03-27T10:44:03.053Z,94482.00
2023-03-27T10:48:03.137Z,94482.00
2023-03-27T10:52:03.003Z,94482.00
2023-03-27T10:56:02.952Z,94484.00
2023-03-27T11:00:02.938Z,94495.00
2023-03-27T11:04:02.866Z,94489.00
2023-03-27T11:08:02.892Z,94503.00
2023-03-27T11:12:02.804Z,94509.00
2023-03-27T11:16:02.733Z,94513.00
2023-03-27T11:20:02.679Z,94525.00
2023-03-27T11:24:02.744Z,94537.00
2023-03-27T11:28:02.638Z,94535.00
2023-03-27T11:32:03.124Z,94552.00
2023-03-27T11:36:02.744Z,94558.00
2023-03-27T11:40:02.550Z,94560.00
2023-03-27T11:44:02.455Z,94562.00
2023-03-27T11:48:02.511Z,94564.00
2023-03-27T11:52:02.399Z,94566.00
2023-03-27T11:56:02.350Z,94580.00
2023-03-27T12:00:02.313Z,94576.00
2023-03-27T12:04:02.401Z,94576.00
2023-03-27T12:08:02.298Z,94574.00
2023-03-27T12:12:02.395Z,94589.00
2023-03-27T12:16:02.602Z,94599.00
2023-03-27T12:20:02.721Z,94605.00
2023-03-27T12:24:02.892Z,94605.00
2023-03-27T12:28:02.999Z,94611.00
2023-03-27T12:32:03.152Z,94613.00
2023-03-27T12:36:03.171Z,94623.00
2023-03-27T12:40:03.222Z,94617.00
2023-03-27T12:44:03.289Z,94629.00
2023-03-27T12:48:03.470Z,94637.00
2023-03-27T12:52:03.423Z,94652.00
2023-03-27T12:56:03.395Z,94660.00
2023-03-27T13:00:03.518Z,94654.00
2023-03-27T13:04:03.586Z,94654.00
2023-03-27T13:08:03.520Z,94658.00
2023-03-27T13:12:03.538Z,94666.00
2023-03-27T13:16:03.740Z,94656.00
2023-03-27T13:20:03.740Z,94662.00
2023-03-27T13:24:04.006Z,94676.00
2023-03-27T13:28:04.140Z,94689.00
2023-03-27T13:32:04.331Z,94687.00
2023-03-27T13:36:04.563Z,94699.00
2023-03-27T13:40:04.497Z,94711.00
2023-03-27T13:44:04.479Z,94707.00
2023-03-27T13:48:04.384Z,94707.00
2023-03-27T13:52:04.329Z,94723.00
2023-03-27T13:56:04.281Z,94715.00
2023-03-27T14:00:04.341Z,94727.00
2023-03-27T14:04:04.263Z,94736.00
2023-03-27T14:08:04.174Z,94734.00
2023-03-27T14:12:04.151Z,94746.00
2023-03-27T14:16:04.246Z,94756.00
2023-03-27T14:20:04.215Z,94768.00
2023-03-27T14:24:04.167Z,94785.00
2023-03-27T14:28:04.160Z,94795.00
2023-03-27T14:32:04.139Z,94799.00
2023-03-27T14:36:04.224Z,94801.00
2023-03-27T14:40:04.044Z,94799.00
2023-03-27T14:44:03.970Z,94803.00
2023-03-27T14:48:03.966Z,94813.00
2023-03-27T14:52:03.918Z,94815.00
2023-03-27T14:56:03.872Z,94819.00
2023-03-27T15:00:04.073Z,94824.00
2023-03-27T15:04:04.256Z,94834.00
2023-03-27T15:08:04.476Z,94844.00
2023-03-27T15:12:04.713Z,94846.00
2023-03-27T15:16:04.900Z,94860.00
2023-03-27T15:20:05.064Z,94878.00
2023-03-27T15:24:05.286Z,94883.00
2023-03-27T15:28:07.006Z,94893.00
2023-03-27T15:32:05.452Z,94909.00
2023-03-27T15:36:05.443Z,94905.00
2023-03-27T15:40:05.376Z,94903.00
2023-03-27T15:44:05.335Z,94907.00
2023-03-27T15:48:05.340Z,94915.00
2023-03-27T15:52:05.241Z,94913.00
2023-03-27T15:56:05.266Z,94921.00
2023-03-27T16:00:05.209Z,94926.00
2023-03-27T16:04:05.265Z,94938.00
2023-03-27T16:08:05.068Z,94942.00
2023-03-27T16:12:05.324Z,94950.00
2023-03-27T16:16:05.356Z,94964.00
2023-03-27T16:20:05.249Z,94960.00
2023-03-27T16:24:05.182Z,94970.00
2023-03-27T16:28:05.199Z,94985.00
2023-03-27T16:32:05.092Z,94983.00
2023-03-27T16:36:05.122Z,94995.00
2023-03-27T16:40:05.066Z,94999.00
2023-03-27T16:44:05.007Z,95011.00
2023-03-27T16:48:05.077Z,95028.00
2023-03-27T16:52:04.992Z,95032.00
2023-03-27T16:56:05.216Z,95036.00
2023-03-27T17:00:05.524Z,95040.00
2023-03-27T17:04:05.566Z,95046.00
2023-03-27T17:08:07.401Z,95052.00
2023-03-27T17:12:05.978Z,95054.00
2023-03-27T17:16:06.053Z,95054.00
2023-03-27T17:20:06.388Z,95069.00
2023-03-27T17:24:06.173Z,95081.00
2023-03-27T17:28:06.206Z,95077.00
2023-03-27T17:32:06.381Z,95077.00
2023-03-27T17:36:06.223Z,95077.00
2023-03-27T17:40:06.221Z,95085.00
2023-03-27T17:44:07.533Z,95091.00
2023-03-27T17:48:06.272Z,95095.00
2023-03-27T17:52:06.205Z,95095.00
2023-03-27T17:56:06.231Z,95091.00
2023-03-27T18:00:06.500Z,95093.00
2023-03-27T18:04:06.215Z,95095.00
2023-03-27T18:08:06.191Z,95103.00
2023-03-27T18:12:06.096Z,95103.00
2023-03-27T18:16:07.133Z,95101.00
2023-03-27T18:20:06.108Z,95109.00
2023-03-27T18:24:06.067Z,95112.00
2023-03-27T18:28:06.100Z,95118.00
2023-03-27T18:32:06.065Z,95124.00
2023-03-27T18:36:06.098Z,95118.00
2023-03-27T18:40:06.112Z,95122.00
2023-03-27T18:44:06.118Z,95136.00
2023-03-27T18:48:06.161Z,95144.00
2023-03-27T18:52:06.184Z,95140.00
2023-03-27T18:56:06.272Z,95140.00
2023-03-27T19:00:06.314Z,95138.00
2023-03-27T19:04:06.457Z,95144.00
2023-03-27T19:08:06.509Z,95162.00
2023-03-27T19:12:06.603Z,95160.00
2023-03-27T19:16:14.037Z,95164.00
2023-03-27T19:20:07.567Z,95166.00
2023-03-27T19:24:06.563Z,95170.00
2023-03-27T19:28:06.529Z,95177.00
2023-03-27T19:32:06.445Z,95183.00
2023-03-27T19:36:06.855Z,95191.00
2023-03-27T19:40:06.388Z,95179.00
2023-03-27T19:44:06.444Z,95195.00
2023-03-27T19:48:06.490Z,95197.00
2023-03-27T19:52:06.766Z,95193.00
2023-03-27T19:56:06.587Z,95189.00
2023-03-27T20:00:06.677Z,95201.00
2023-03-27T20:04:06.761Z,95197.00
2023-03-27T20:08:06.824Z,95199.00
2023-03-27T20:12:06.904Z,95187.00
2023-03-27T20:16:06.999Z,95185.00
2023-03-27T20:20:07.056Z,95191.00
2023-03-27T20:24:07.190Z,95187.00
2023-03-27T20:28:07.292Z,95195.00
2023-03-27T20:32:08.810Z,95205.00
2023-03-27T20:36:07.374Z,95214.00
2023-03-27T20:40:07.519Z,95228.00
2023-03-27T20:44:07.537Z,95230.00
2023-03-27T20:48:07.734Z,95226.00
2023-03-27T20:52:07.793Z,95240.00
2023-03-27T20:56:08.039Z,95244.00
2023-03-27T21:00:07.922Z,95240.00
2023-03-27T21:04:07.929Z,95234.00
2023-03-27T21:08:08.045Z,95234.00
2023-03-27T21:12:08.148Z,95238.00
2023-03-27T21:16:08.278Z,95236.00
2023-03-27T21:20:08.864Z,95242.00
2023-03-27T21:24:08.528Z,95244.00
2023-03-27T21:28:08.641Z,95244.00
2023-03-27T21:32:08.760Z,95242.00
2023-03-27T21:36:08.946Z,95238.00
2023-03-27T21:40:08.954Z,95234.00
2023-03-27T21:44:09.109Z,95236.00
2023-03-27T21:48:09.268Z,95246.00
2023-03-27T21:52:09.321Z,95254.00
2023-03-27T21:56:09.446Z,95254.00
2023-03-27T22:00:09.606Z,95262.00
2023-03-27T22:04:09.743Z,95267.00
2023-03-27T22:08:09.879Z,95277.00
2023-03-27T22:12:10.083Z,95285.00
2023-03-27T22:16:10.311Z,95287.00
2023-03-27T22:20:10.382Z,95289.00
2023-03-27T22:24:10.584Z,95291.00
2023-03-27T22:28:10.776Z,95279.00
2023-03-27T22:32:10.955Z,95289.00
2023-03-27T22:36:11.235Z,95303.00
2023-03-27T22:40:11.322Z,95308.00
2023-03-27T22:44:11.512Z,95305.00
2023-03-27T22:48:11.682Z,95314.00
2023-03-27T22:52:11.980Z,95346.00
2023-03-27T22:56:12.105Z,95316.00
2023-03-27T23:00:12.270Z,95344.00
2023-03-27T23:04:12.500Z,95334.00
2023-03-27T23:08:12.715Z,95340.00
2023-03-27T23:12:12.924Z,95344.00
2023-03-27T23:16:13.174Z,95338.00
2023-03-27T23:20:13.298Z,95342.00
2023-03-27T23:24:13.517Z,95342.00
2023-03-27T23:28:13.495Z,95338.00
2023-03-27T23:32:13.680Z,95334.00
2023-03-27T23:36:13.579Z,95340.00
2023-03-27T23:40:13.422Z,95334.00
2023-03-27T23:44:13.359Z,95344.00
2023-03-27T23:48:13.286Z,95348.00
2023-03-27T23:52:13.301Z,95354.00
2023-03-27T23:56:13.197Z,95363.00
